createdAt,value
2019-02-10T00:01:01.533Z,1.67
2019-02-10T00:03:28.898Z,1.86
2019-02-10T00:05:56.341Z,1.84
2019-02-10T00:08:23.830Z,1.60
2019-02-10T00:10:51.183Z,1.44
2019-02-10T00:13:26.016Z,1.33
2019-02-10T00:15:53.478Z,1.23
2019-02-10T00:18:20.923Z,1.24
2019-02-10T00:20:48.429Z,1.23
2019-02-10T00:23:15.847Z,1.12
2019-02-10T00:25:43.272Z,0.87
2019-02-10T00:28:10.641Z,1.01
2019-02-10T00:30:38.171Z,1.09
2019-02-10T00:33:05.609Z,1.17
2019-02-10T00:35:33.023Z,1.01
2019-02-10T00:38:00.466Z,1.10
2019-02-10T00:40:27.939Z,0.98
2019-02-10T00:42:55.361Z,0.97
2019-02-10T00:45:22.803Z,1.16
2019-02-10T00:47:50.204Z,1.17
2019-02-10T00:50:17.654Z,1.22
2019-02-10T00:52:45.183Z,1.07
2019-02-10T00:55:12.590Z,1.20
2019-02-10T00:57:40.000Z,1.59
2019-02-10T01:00:07.993Z,1.50
2019-02-10T01:02:35.420Z,1.34
2019-02-10T01:05:02.838Z,1.30
2019-02-10T01:07:30.419Z,1.20
2019-02-10T01:09:57.781Z,1.17
2019-02-10T01:12:25.262Z,1.01
2019-02-10T01:14:52.684Z,1.05
2019-02-10T01:17:20.061Z,1.17
2019-02-10T01:19:47.468Z,1.30
2019-02-10T01:22:15.036Z,1.32
2019-02-10T01:24:42.495Z,1.04
2019-02-10T01:27:10.238Z,1.16
2019-02-10T01:29:37.784Z,1.24
2019-02-10T01:32:05.356Z,1.28
2019-02-10T01:34:32.750Z,1.33
2019-02-10T01:37:00.215Z,1.36
2019-02-10T01:39:27.852Z,1.27
2019-02-10T01:41:55.308Z,1.05
2019-02-10T01:44:22.720Z,0.91
2019-02-10T01:46:50.103Z,0.82
2019-02-10T01:49:17.499Z,0.74
2019-02-10T01:51:44.958Z,0.73
2019-02-10T01:54:12.517Z,0.70
2019-02-10T01:56:40.123Z,0.59
2019-02-10T01:59:07.544Z,0.53
2019-02-10T02:01:34.971Z,0.57
2019-02-10T02:04:02.391Z,0.62
2019-02-10T02:06:29.851Z,0.70
2019-02-10T02:08:57.303Z,0.58
2019-02-10T02:11:24.759Z,0.40
2019-02-10T02:13:52.250Z,0.34
2019-02-10T02:16:19.707Z,0.30
2019-02-10T02:18:47.157Z,0.19
2019-02-10T02:21:14.556Z,0.00
2019-02-10T02:23:41.995Z,0.24
2019-02-10T02:26:09.427Z,0.19
2019-02-10T02:28:36.865Z,0.27
2019-02-10T02:31:04.348Z,0.30
2019-02-10T02:33:31.806Z,0.25
2019-02-10T02:35:59.209Z,0.44
2019-02-10T02:38:26.641Z,0.32
2019-02-10T02:40:54.125Z,0.31
2019-02-10T02:43:21.546Z,0.21
2019-02-10T02:45:48.955Z,0.00
2019-02-10T02:48:16.424Z,-0.32
2019-02-10T02:50:43.810Z,-0.38
2019-02-10T02:53:11.281Z,-0.38
2019-02-10T02:55:38.815Z,-0.64
2019-02-10T02:58:06.199Z,-0.78
2019-02-10T03:00:33.685Z,-0.87
2019-02-10T03:03:01.171Z,-0.71
2019-02-10T03:05:28.551Z,-0.71
2019-02-10T03:07:56.005Z,-0.74
2019-02-10T03:10:23.474Z,-0.89
2019-02-10T03:12:50.843Z,-1.03
2019-02-10T03:15:18.262Z,-0.95
2019-02-10T03:17:45.685Z,-1.02
2019-02-10T03:20:13.129Z,0.07
2019-02-10T03:22:40.510Z,0.17
2019-02-10T03:25:08.105Z,0.17
2019-02-10T03:27:35.545Z,0.50
2019-02-10T03:30:03.081Z,0.61
2019-02-10T03:32:30.539Z,0.55
2019-02-10T03:34:57.972Z,1.03
2019-02-10T03:37:27.193Z,1.07
2019-02-10T03:39:54.963Z,1.12
2019-02-10T03:42:22.821Z,0.78
2019-02-10T03:44:50.215Z,0.55
2019-02-10T03:47:17.652Z,0.59
2019-02-10T03:49:45.081Z,0.45
2019-02-10T03:52:12.546Z,0.45
2019-02-10T03:54:40.045Z,0.32
2019-02-10T03:57:07.606Z,0.37
2019-02-10T03:59:35.064Z,0.20
2019-02-10T04:02:02.456Z,0.30
2019-02-10T04:04:30.285Z,0.79
2019-02-10T04:06:57.750Z,0.54
2019-02-10T04:09:25.117Z,0.62
2019-02-10T04:11:52.573Z,0.48
2019-02-10T04:14:20.027Z,0.33
2019-02-10T04:16:47.406Z,0.59
2019-02-10T04:19:14.829Z,0.41
2019-02-10T04:21:42.249Z,0.21
2019-02-10T04:24:09.745Z,-0.04
2019-02-10T04:26:37.188Z,0.12
2019-02-10T04:29:05.859Z,0.06
2019-02-10T04:31:33.317Z,0.04
2019-02-10T04:34:00.798Z,0.27
2019-02-10T04:36:28.222Z,0.14
2019-02-10T04:38:55.808Z,0.00
2019-02-10T04:41:23.374Z,0.03
2019-02-10T04:43:50.840Z,0.24
2019-02-10T04:46:18.452Z,0.34
2019-02-10T04:48:45.863Z,0.55
2019-02-10T04:51:13.301Z,0.35
2019-02-10T04:53:40.750Z,0.34
2019-02-10T04:56:15.618Z,0.31
2019-02-10T04:58:43.174Z,0.62
2019-02-10T05:01:10.627Z,0.68
2019-02-10T05:03:38.203Z,0.44
2019-02-10T05:06:05.564Z,0.54
2019-02-10T05:08:33.004Z,0.66
2019-02-10T05:11:00.465Z,0.47
2019-02-10T05:13:27.832Z,0.45
2019-02-10T05:15:55.269Z,0.30
2019-02-10T05:18:23.249Z,0.11
2019-02-10T05:20:50.670Z,-0.02
2019-02-10T05:23:18.202Z,-0.05
2019-02-10T05:25:45.667Z,0.04
2019-02-10T05:28:13.091Z,-0.22
2019-02-10T05:30:40.510Z,-0.45
2019-02-10T05:33:07.964Z,-0.11
2019-02-10T05:35:35.412Z,-0.11
2019-02-10T05:38:04.481Z,-0.46
2019-02-10T05:40:32.312Z,-0.52
2019-02-10T05:42:59.791Z,-0.36
2019-02-10T05:45:27.230Z,-0.16
2019-02-10T05:47:54.676Z,0.11
2019-02-10T05:50:22.152Z,0.22
2019-02-10T05:52:49.523Z,0.11
2019-02-10T05:55:17.059Z,-0.05
2019-02-10T05:57:44.535Z,-0.22
2019-02-10T06:00:12.173Z,-0.01
2019-02-10T06:02:39.597Z,0.15
2019-02-10T06:05:19.273Z,0.39
2019-02-10T06:07:46.766Z,0.38
2019-02-10T06:10:14.243Z,0.33
2019-02-10T06:12:41.832Z,0.14
2019-02-10T06:15:09.692Z,0.38
2019-02-10T06:17:37.270Z,0.29
2019-02-10T06:20:05.306Z,0.83
2019-02-10T06:22:32.735Z,1.11
2019-02-10T06:25:00.256Z,0.85
2019-02-10T06:27:27.749Z,0.85
2019-02-10T06:29:55.287Z,1.11
2019-02-10T06:32:22.765Z,1.21
2019-02-10T06:34:50.158Z,1.25
2019-02-10T06:37:17.609Z,1.31
2019-02-10T06:39:45.314Z,1.56
2019-02-10T06:42:13.016Z,1.47
2019-02-10T06:44:40.503Z,1.39
2019-02-10T06:47:07.857Z,1.61
2019-02-10T06:49:35.306Z,1.87
2019-02-10T06:52:02.769Z,1.86
2019-02-10T06:54:30.149Z,1.81
2019-02-10T06:56:57.607Z,1.80
2019-02-10T06:59:53.211Z,1.71
2019-02-10T07:02:39.857Z,1.68
2019-02-10T07:05:08.956Z,1.65
2019-02-10T07:07:36.423Z,1.76
2019-02-10T07:10:04.878Z,1.92
2019-02-10T07:12:48.930Z,1.94
2019-02-10T07:15:52.936Z,1.97
2019-02-10T07:18:57.142Z,2.07
2019-02-10T07:21:28.766Z,2.18
2019-02-10T07:23:58.913Z,2.21
2019-02-10T07:27:09.797Z,2.39
2019-02-10T07:30:33.554Z,2.12
2019-02-10T07:33:03.978Z,2.13
2019-02-10T07:36:20.787Z,2.48
2019-02-10T07:39:32.119Z,2.64
2019-02-10T07:42:25.687Z,2.72
2019-02-10T07:45:25.549Z,2.83
2019-02-10T07:48:10.059Z,3.06
2019-02-10T07:51:10.594Z,3.37
2019-02-10T07:54:10.328Z,3.56
2019-02-10T07:57:05.614Z,3.33
2019-02-10T08:00:00.740Z,3.33
2019-02-10T08:03:09.532Z,3.61
2019-02-10T08:06:02.068Z,3.61
2019-02-10T08:09:01.429Z,3.63
2019-02-10T08:11:48.041Z,3.99
2019-02-10T08:14:53.408Z,4.14
2019-02-10T08:17:53.625Z,4.35
2019-02-10T08:20:56.260Z,4.22
2019-02-10T08:24:00.692Z,4.07
2019-02-10T08:27:27.921Z,4.30
2019-02-10T08:30:38.767Z,4.36
2019-02-10T08:33:43.079Z,4.34
2019-02-10T08:36:55.445Z,4.44
2019-02-10T08:39:46.190Z,4.79
2019-02-10T08:42:40.769Z,5.42
2019-02-10T08:45:24.591Z,5.73
2019-02-10T08:48:26.683Z,6.08
2019-02-10T08:51:43.656Z,5.94
2019-02-10T08:54:11.634Z,5.85
2019-02-10T08:56:39.111Z,5.88
2019-02-10T08:59:06.554Z,5.96
2019-02-10T09:01:34.019Z,6.04
2019-02-10T09:04:01.591Z,5.89
2019-02-10T09:06:29.568Z,6.00
2019-02-10T09:09:02.412Z,6.32
2019-02-10T09:11:26.439Z,6.79
2019-02-10T09:13:53.878Z,7.00
2019-02-10T09:16:21.320Z,7.28
2019-02-10T09:18:48.673Z,7.15
2019-02-10T09:21:16.129Z,7.07
2019-02-10T09:23:43.602Z,7.26
2019-02-10T09:26:11.087Z,7.14
2019-02-10T09:28:38.566Z,7.01
2019-02-10T09:31:05.949Z,7.29
2019-02-10T09:33:33.416Z,7.63
2019-02-10T09:36:00.900Z,7.63
2019-02-10T09:38:28.329Z,7.90
2019-02-10T09:40:55.772Z,8.16
2019-02-10T09:43:23.205Z,8.56
2019-02-10T09:45:50.737Z,8.71
2019-02-10T09:48:18.165Z,8.80
2019-02-10T09:50:45.634Z,8.97
2019-02-10T09:53:13.077Z,9.08
2019-02-10T09:55:40.540Z,9.17
2019-02-10T09:58:07.971Z,8.96
2019-02-10T10:00:35.460Z,8.91
2019-02-10T10:03:02.871Z,9.01
2019-02-10T10:05:30.343Z,9.09
2019-02-10T10:07:57.888Z,9.32
2019-02-10T10:10:25.344Z,9.35
2019-02-10T10:12:52.896Z,9.64
2019-02-10T10:15:20.340Z,9.62
2019-02-10T10:17:47.869Z,9.72
2019-02-10T10:20:15.656Z,9.74
2019-02-10T10:22:43.086Z,9.75
2019-02-10T10:25:10.651Z,9.89
2019-02-10T10:27:38.097Z,10.00
2019-02-10T10:30:07.745Z,9.86
2019-02-10T10:32:35.236Z,9.89
2019-02-10T10:35:02.816Z,9.96
2019-02-10T10:37:30.396Z,10.10
2019-02-10T10:39:57.845Z,10.03
2019-02-10T10:42:25.428Z,9.94
2019-02-10T10:44:52.929Z,9.96
2019-02-10T10:47:20.377Z,9.91
2019-02-10T10:49:47.883Z,10.11
2019-02-10T10:52:15.281Z,10.25
2019-02-10T10:54:43.116Z,10.22
2019-02-10T10:57:10.693Z,10.47
2019-02-10T10:59:38.229Z,10.50
2019-02-10T11:02:05.693Z,10.53
2019-02-10T11:04:33.165Z,10.48
2019-02-10T11:07:00.610Z,10.55
2019-02-10T11:09:35.463Z,10.71
2019-02-10T11:11:57.490Z,10.80
2019-02-10T11:14:25.062Z,10.87
2019-02-10T11:16:52.475Z,10.78
2019-02-10T11:19:19.966Z,10.65
2019-02-10T11:21:47.424Z,10.61
2019-02-10T11:24:14.875Z,10.72
2019-02-10T11:26:42.307Z,10.75
2019-02-10T11:29:09.811Z,10.72
2019-02-10T11:31:37.264Z,11.03
2019-02-10T11:34:04.687Z,10.96
2019-02-10T11:36:32.131Z,11.12
2019-02-10T11:38:59.610Z,11.11
2019-02-10T11:41:27.163Z,11.50
2019-02-10T11:43:54.742Z,11.63
2019-02-10T11:46:22.268Z,11.50
2019-02-10T11:48:49.748Z,11.59
2019-02-10T11:51:17.242Z,11.53
2019-02-10T11:53:44.732Z,11.62
2019-02-10T11:56:12.221Z,11.90
2019-02-10T11:58:39.834Z,12.16
2019-02-10T12:01:07.298Z,12.06
2019-02-10T12:03:35.215Z,12.41
2019-02-10T12:06:02.683Z,12.32
2019-02-10T12:08:35.590Z,12.29
2019-02-10T12:10:59.846Z,12.26
2019-02-10T12:13:27.312Z,12.00
2019-02-10T12:15:54.817Z,11.64
2019-02-10T12:18:22.416Z,11.76
2019-02-10T12:20:52.320Z,11.88
2019-02-10T12:23:19.824Z,11.99
2019-02-10T12:25:47.323Z,12.24
2019-02-10T12:28:14.924Z,12.21
2019-02-10T12:30:42.455Z,12.20
2019-02-10T12:33:09.923Z,12.29
2019-02-10T12:35:38.735Z,12.12
2019-02-10T12:38:06.254Z,12.13
2019-02-10T12:40:33.738Z,12.25
2019-02-10T12:43:01.191Z,12.34
2019-02-10T12:45:30.029Z,12.59
2019-02-10T12:47:58.373Z,12.88
2019-02-10T12:50:27.037Z,13.01
2019-02-10T12:52:54.484Z,12.80
2019-02-10T12:55:22.881Z,12.58
2019-02-10T12:57:52.338Z,12.43
2019-02-10T13:00:19.934Z,12.22
2019-02-10T13:02:47.596Z,12.13
2019-02-10T13:05:15.237Z,12.40
2019-02-10T13:07:42.849Z,12.75
2019-02-10T13:10:11.849Z,12.94
2019-02-10T13:12:39.516Z,12.96
2019-02-10T13:15:08.248Z,12.70
2019-02-10T13:17:35.730Z,12.43
2019-02-10T13:20:04.011Z,12.32
2019-02-10T13:22:31.467Z,12.40
2019-02-10T13:24:58.953Z,12.43
2019-02-10T13:27:26.451Z,12.45
2019-02-10T13:29:54.032Z,12.47
2019-02-10T13:32:21.576Z,12.49
2019-02-10T13:34:49.040Z,12.60
2019-02-10T13:37:19.246Z,12.57
2019-02-10T13:39:47.013Z,12.62
2019-02-10T13:42:14.560Z,12.71
2019-02-10T13:44:42.379Z,12.69
2019-02-10T13:47:09.867Z,12.65
2019-02-10T13:49:37.447Z,12.52
2019-02-10T13:52:04.886Z,12.46
2019-02-10T13:54:32.421Z,12.47
2019-02-10T13:56:59.975Z,12.65
2019-02-10T13:59:27.561Z,12.69
2019-02-10T14:01:55.132Z,12.82
2019-02-10T14:04:22.779Z,12.70
2019-02-10T14:06:50.266Z,12.73
2019-02-10T14:09:17.870Z,12.60
2019-02-10T14:11:45.331Z,12.51
2019-02-10T14:14:12.939Z,12.47
2019-02-10T14:16:40.411Z,12.46
2019-02-10T14:19:08.050Z,12.44
2019-02-10T14:21:35.526Z,12.47
2019-02-10T14:24:02.981Z,12.54
2019-02-10T14:26:30.511Z,12.63
2019-02-10T14:28:57.958Z,12.82
2019-02-10T14:31:25.463Z,12.96
2019-02-10T14:33:52.951Z,13.08
2019-02-10T14:36:20.475Z,13.08
2019-02-10T14:38:47.906Z,13.11
2019-02-10T14:41:15.381Z,13.29
2019-02-10T14:43:42.934Z,13.01
2019-02-10T14:46:10.498Z,12.74
2019-02-10T14:48:37.904Z,12.60
2019-02-10T14:51:05.371Z,12.48
2019-02-10T14:53:32.871Z,12.32
2019-02-10T14:56:00.312Z,12.21
2019-02-10T14:58:27.815Z,12.20
2019-02-10T15:00:55.291Z,12.15
2019-02-10T15:03:22.815Z,12.12
2019-02-10T15:05:50.275Z,12.11
2019-02-10T15:08:17.716Z,12.11
2019-02-10T15:10:45.397Z,12.03
2019-02-10T15:13:13.151Z,11.91
2019-02-10T15:15:40.662Z,11.80
2019-02-10T15:18:08.146Z,11.75
2019-02-10T15:20:35.629Z,11.69
2019-02-10T15:23:03.131Z,11.64
2019-02-10T15:25:30.653Z,11.53
2019-02-10T15:27:58.030Z,11.41
2019-02-10T15:30:25.476Z,11.32
2019-02-10T15:32:52.934Z,11.22
2019-02-10T15:35:20.303Z,11.16
2019-02-10T15:37:47.999Z,11.08
2019-02-10T15:40:15.456Z,11.11
2019-02-10T15:42:43.473Z,10.99
2019-02-10T15:45:11.238Z,11.00
2019-02-10T15:47:38.879Z,10.97
2019-02-10T15:50:07.406Z,10.90
2019-02-10T15:52:34.928Z,10.96
2019-02-10T15:55:02.416Z,10.81
2019-02-10T15:57:29.866Z,10.72
2019-02-10T15:59:57.353Z,10.72
2019-02-10T16:02:24.941Z,10.62
2019-02-10T16:04:52.440Z,10.71
2019-02-10T16:07:19.911Z,10.86
2019-02-10T16:09:47.546Z,10.73
2019-02-10T16:12:15.116Z,10.66
2019-02-10T16:14:42.543Z,10.64
2019-02-10T16:17:09.994Z,10.60
2019-02-10T16:19:37.451Z,10.51
2019-02-10T16:22:05.150Z,10.42
2019-02-10T16:24:32.600Z,10.46
2019-02-10T16:27:00.390Z,10.43
2019-02-10T16:29:28.429Z,10.41
2019-02-10T16:31:55.993Z,10.36
2019-02-10T16:34:23.479Z,10.13
2019-02-10T16:36:51.058Z,10.12
2019-02-10T16:39:18.413Z,10.09
2019-02-10T16:41:45.891Z,10.15
2019-02-10T16:44:13.386Z,9.98
2019-02-10T16:46:40.843Z,9.60
2019-02-10T16:49:08.540Z,9.46
2019-02-10T16:51:36.106Z,9.50
2019-02-10T16:54:03.484Z,9.48
2019-02-10T16:56:30.974Z,9.42
2019-02-10T16:58:58.901Z,9.25
2019-02-10T17:01:26.382Z,9.08
2019-02-10T17:03:53.840Z,9.13
2019-02-10T17:06:21.288Z,9.04
2019-02-10T17:08:48.767Z,9.00
2019-02-10T17:11:16.276Z,8.97
2019-02-10T17:13:43.706Z,8.95
2019-02-10T17:16:11.203Z,8.94
2019-02-10T17:18:38.612Z,8.84
2019-02-10T17:21:06.083Z,8.69
2019-02-10T17:23:34.083Z,8.66
2019-02-10T17:26:01.724Z,8.71
2019-02-10T17:28:29.119Z,8.69
2019-02-10T17:30:56.548Z,8.69
2019-02-10T17:33:23.969Z,8.73
2019-02-10T17:35:51.461Z,8.88
2019-02-10T17:38:18.931Z,8.89
2019-02-10T17:40:52.884Z,8.92
2019-02-10T17:43:27.993Z,8.86
2019-02-10T17:45:50.088Z,8.76
2019-02-10T17:48:17.514Z,8.76
2019-02-10T17:50:45.086Z,8.67
2019-02-10T17:53:12.610Z,8.49
2019-02-10T17:55:40.074Z,8.46
2019-02-10T17:58:07.669Z,8.49
2019-02-10T18:00:39.422Z,8.59
2019-02-10T18:03:07.110Z,8.56
2019-02-10T18:05:35.390Z,8.48
2019-02-10T18:08:02.910Z,8.49
2019-02-10T18:10:30.856Z,8.52
2019-02-10T18:12:58.388Z,8.59
2019-02-10T18:15:54.501Z,8.33
2019-02-10T18:18:28.107Z,8.22
2019-02-10T18:21:08.369Z,8.16
2019-02-10T18:24:00.913Z,8.32
2019-02-10T18:26:47.979Z,8.08
2019-02-10T18:29:36.443Z,7.72
2019-02-10T18:32:19.956Z,7.29
2019-02-10T18:35:05.504Z,7.07
2019-02-10T18:38:07.942Z,6.99
2019-02-10T18:40:49.031Z,7.00
2019-02-10T18:43:39.093Z,6.87
2019-02-10T18:46:19.895Z,6.86
2019-02-10T18:49:07.211Z,6.86
2019-02-10T18:52:03.144Z,6.93
2019-02-10T18:54:50.161Z,6.97
2019-02-10T18:57:25.360Z,7.00
2019-02-10T19:00:24.445Z,7.18
2019-02-10T19:03:20.054Z,7.20
2019-02-10T19:06:19.144Z,7.19
2019-02-10T19:09:03.780Z,7.21
2019-02-10T19:11:36.024Z,7.18
2019-02-10T19:14:23.060Z,7.30
2019-02-10T19:17:10.038Z,7.17
2019-02-10T19:20:15.352Z,7.08
2019-02-10T19:23:00.772Z,7.12
2019-02-10T19:25:34.595Z,7.08
2019-02-10T19:28:20.405Z,7.34
2019-02-10T19:30:53.964Z,7.31
2019-02-10T19:33:46.966Z,7.12
2019-02-10T19:36:32.447Z,6.90
2019-02-10T19:39:21.486Z,6.70
2019-02-10T19:42:01.093Z,6.53
2019-02-10T19:44:49.044Z,6.51
2019-02-10T19:47:39.155Z,6.27
2019-02-10T19:50:29.323Z,6.39
2019-02-10T19:53:15.010Z,6.31
2019-02-10T19:55:51.003Z,6.24
2019-02-10T19:58:40.775Z,6.22
2019-02-10T20:01:28.151Z,6.17
2019-02-10T20:04:19.892Z,5.98
2019-02-10T20:07:06.958Z,5.91
2019-02-10T20:09:44.525Z,6.02
2019-02-10T20:12:43.854Z,5.97
2019-02-10T20:15:39.959Z,6.01
2019-02-10T20:18:29.941Z,5.88
2019-02-10T20:21:16.942Z,5.80
2019-02-10T20:23:51.266Z,5.80
2019-02-10T20:26:49.566Z,5.83
2019-02-10T20:29:22.731Z,6.00
2019-02-10T20:32:15.913Z,5.98
2019-02-10T20:35:09.050Z,5.82
2019-02-10T20:38:02.188Z,5.90
2019-02-10T20:40:49.165Z,5.91
2019-02-10T20:43:45.437Z,5.79
2019-02-10T20:46:21.632Z,5.99
2019-02-10T20:49:08.582Z,6.06
2019-02-10T20:51:44.577Z,5.76
2019-02-10T20:54:30.392Z,5.77
2019-02-10T20:57:16.048Z,5.88
2019-02-10T20:59:57.291Z,6.11
2019-02-10T21:02:47.000Z,6.17
2019-02-10T21:05:36.113Z,6.17
2019-02-10T21:08:30.188Z,6.13
2019-02-10T21:11:28.926Z,5.93
2019-02-10T21:14:21.792Z,5.85
2019-02-10T21:17:11.283Z,5.74
2019-02-10T21:20:01.271Z,5.69
2019-02-10T21:22:39.808Z,5.53
2019-02-10T21:25:25.026Z,5.44
2019-02-10T21:28:08.005Z,5.40
2019-02-10T21:30:53.806Z,5.26
2019-02-10T21:33:49.540Z,5.18
2019-02-10T21:36:28.554Z,5.43
2019-02-10T21:39:14.633Z,5.35
2019-02-10T21:41:52.416Z,5.41
2019-02-10T21:44:26.524Z,5.28
2019-02-10T21:47:16.591Z,5.27
2019-02-10T21:49:44.141Z,5.25
2019-02-10T21:52:11.588Z,5.16
2019-02-10T21:54:39.128Z,4.98
2019-02-10T21:57:07.073Z,4.96
2019-02-10T21:59:34.613Z,4.85
2019-02-10T22:02:02.054Z,4.81
2019-02-10T22:04:29.500Z,4.57
2019-02-10T22:06:56.914Z,4.49
2019-02-10T22:09:24.439Z,4.52
2019-02-10T22:11:51.880Z,4.54
2019-02-10T22:14:19.294Z,4.52
2019-02-10T22:16:46.775Z,4.36
2019-02-10T22:19:14.228Z,4.45
2019-02-10T22:21:41.613Z,4.51
2019-02-10T22:24:09.071Z,4.36
2019-02-10T22:26:36.496Z,4.40
2019-02-10T22:29:03.895Z,4.41
2019-02-10T22:31:31.300Z,4.48
2019-02-10T22:33:58.725Z,4.49
2019-02-10T22:36:26.165Z,4.62
2019-02-10T22:38:53.589Z,4.44
2019-02-10T22:41:20.994Z,4.31
2019-02-10T22:43:48.422Z,4.40
2019-02-10T22:46:15.857Z,4.68
2019-02-10T22:48:43.423Z,4.54
2019-02-10T22:51:10.937Z,4.52
2019-02-10T22:53:38.320Z,4.60
2019-02-10T22:56:05.736Z,4.61
2019-02-10T22:58:33.163Z,4.56
2019-02-10T23:01:04.456Z,4.70
2019-02-10T23:03:31.930Z,4.74
2019-02-10T23:05:59.461Z,4.91
2019-02-10T23:08:26.821Z,4.86
2019-02-10T23:10:54.322Z,4.54
2019-02-10T23:13:21.753Z,4.68
2019-02-10T23:15:49.108Z,4.57
2019-02-10T23:18:16.507Z,4.56
2019-02-10T23:20:43.907Z,4.43
2019-02-10T23:23:11.298Z,4.46
2019-02-10T23:25:38.718Z,4.40
2019-02-10T23:28:06.158Z,4.19
2019-02-10T23:30:33.497Z,4.08
2019-02-10T23:33:00.915Z,4.12
2019-02-10T23:35:28.428Z,4.04
2019-02-10T23:37:55.833Z,3.92
2019-02-10T23:40:23.241Z,3.85
2019-02-10T23:42:50.576Z,3.87
2019-02-10T23:45:18.091Z,4.10
2019-02-10T23:47:45.507Z,4.40
2019-02-10T23:50:12.982Z,4.31
2019-02-10T23:52:40.441Z,3.87
2019-02-10T23:55:07.965Z,4.10
2019-02-10T23:57:35.409Z,4.20
